Time;durP1;ratioP1;P1;durP2;ratioP2;P2;SDS_P1;SDS_P2;PMS_P1;PMS_P2;Temp;Humidity;BMP_temperature;BMP_pressure;BME280_temperature;BME280_humidity;BME280_pressure;Samples;Min_cycle;Max_cycle;Signal;HPM_P1;HPM_P2
2022/03/26 00:00:19;;;;;;;51.57;24.47;;;9.30;58.40;;;;;;5097697;28;20547;-77
2022/03/26 00:02:46;;;;;;;51.10;23.50;;;9.30;58.40;;;;;;5085220;28;20441;-76
2022/03/26 00:05:12;;;;;;;53.53;22.90;;;9.20;58.20;;;;;;5077077;28;20432;-74
2022/03/26 00:07:38;;;;;;;48.27;22.03;;;9.20;57.80;;;;;;5073501;28;20473;-75
2022/03/26 00:10:05;;;;;;;57.47;23.43;;;9.10;58.00;;;;;;5091456;28;20190;-75
2022/03/26 00:12:30;;;;;;;48.13;22.30;;;9.10;58.40;;;;;;5090857;28;20206;-76
2022/03/26 00:14:58;;;;;;;49.13;23.40;;;9.10;58.90;;;;;;5090887;28;20425;-75
2022/03/26 00:17:24;;;;;;;46.40;22.23;;;9.10;58.70;;;;;;5088892;28;20187;-75
2022/03/26 00:19:50;;;;;;;51.60;23.67;;;9.00;59.20;;;;;;5090800;28;20428;-75
2022/03/26 00:22:16;;;;;;;49.20;22.70;;;8.90;59.50;;;;;;5090068;28;20444;-74
2022/03/26 00:24:42;;;;;;;43.47;21.20;;;8.90;59.50;;;;;;5090381;28;20225;-76
2022/03/26 00:27:08;;;;;;;50.80;22.13;;;8.90;59.50;;;;;;5089920;28;20554;-75
2022/03/26 00:29:34;;;;;;;49.43;23.37;;;8.90;59.70;;;;;;5079484;28;20236;-76
2022/03/26 00:32:00;;;;;;;44.83;21.57;;;8.90;59.70;;;;;;5088138;28;20448;-75
2022/03/26 00:34:25;;;;;;;50.47;23.70;;;8.90;59.30;;;;;;5090365;28;20315;-76
2022/03/26 00:36:51;;;;;;;50.87;23.43;;;8.90;59.30;;;;;;5090070;28;20187;-75
2022/03/26 00:39:17;;;;;;;57.47;23.67;;;8.80;59.50;;;;;;5090914;28;20201;-75
2022/03/26 00:41:42;;;;;;;49.60;23.10;;;8.70;59.60;;;;;;5090544;28;20215;-75
2022/03/26 00:44:08;;;;;;;49.60;22.40;;;8.80;59.70;;;;;;5093104;28;20244;-76
2022/03/26 00:46:34;;;;;;;53.70;23.70;;;8.70;59.90;;;;;;5093705;28;20203;-76
2022/03/26 00:49:00;;;;;;;49.60;22.80;;;8.70;60.30;;;;;;5092000;28;20210;-75
2022/03/26 00:51:26;;;;;;;54.13;23.20;;;8.70;59.70;;;;;;5091223;28;20421;-76
2022/03/26 00:53:51;;;;;;;48.50;21.63;;;8.60;60.10;;;;;;5087522;28;20195;-76
2022/03/26 00:56:18;;;;;;;59.00;24.30;;;8.60;60.60;;;;;;5091601;28;20199;-75
2022/03/26 00:58:43;;;;;;;48.10;22.10;;;8.60;60.90;;;;;;5091955;28;20610;-75
2022/03/26 01:01:10;;;;;;;42.57;21.07;;;8.40;61.50;;;;;;5091573;28;20546;-74
2022/03/26 01:03:36;;;;;;;50.20;21.80;;;8.40;61.20;;;;;;5090950;28;20211;-76
2022/03/26 01:06:03;;;;;;;50.73;22.10;;;8.40;61.30;;;;;;5090513;28;20465;-76
2022/03/26 01:08:29;;;;;;;48.10;22.83;;;8.40;61.50;;;;;;5091797;28;20572;-74
2022/03/26 01:10:55;;;;;;;52.47;23.83;;;8.30;61.50;;;;;;5091917;28;20464;-75
2022/03/26 01:13:23;;;;;;;55.80;23.47;;;8.30;61.20;;;;;;5091073;28;20506;-75
2022/03/26 01:15:48;;;;;;;49.97;21.73;;;8.20;61.70;;;;;;5091386;28;20266;-75
2022/03/26 01:18:14;;;;;;;54.17;23.50;;;8.20;61.90;;;;;;5091430;28;20421;-76
2022/03/26 01:20:40;;;;;;;61.13;24.43;;;8.20;62.00;;;;;;5091723;28;20186;-75
2022/03/26 01:23:05;;;;;;;56.83;23.60;;;8.30;61.50;;;;;;5075305;28;20715;-75
2022/03/26 01:25:32;;;;;;;52.60;23.87;;;8.20;61.50;;;;;;5091213;28;20187;-76
2022/03/26 01:27:58;;;;;;;52.87;23.70;;;8.20;61.60;;;;;;5094076;28;20244;-75
2022/03/26 01:30:24;;;;;;;45.93;22.60;;;8.20;61.50;;;;;;5097817;28;20923;-75
2022/03/26 01:32:50;;;;;;;47.00;21.87;;;8.10;61.60;;;;;;5095624;28;20203;-74
2022/03/26 01:35:16;;;;;;;51.10;24.13;;;8.00;61.60;;;;;;5097046;28;20425;-75
2022/03/26 01:37:42;;;;;;;50.77;23.10;;;8.00;61.70;;;;;;5098177;28;20432;-74
2022/03/26 01:40:08;;;;;;;51.10;22.63;;;8.00;61.90;;;;;;5097306;28;20228;-74
2022/03/26 01:42:34;;;;;;;48.23;22.97;;;8.00;61.30;;;;;;5093294;28;20673;-75
2022/03/26 01:45:00;;;;;;;47.07;22.40;;;8.00;61.70;;;;;;5093013;28;20445;-75
2022/03/26 01:47:26;;;;;;;43.83;19.70;;;7.90;61.90;;;;;;5091675;28;20203;-74
2022/03/26 01:49:52;;;;;;;55.80;22.00;;;7.90;62.20;;;;;;5092184;28;20209;-76
2022/03/26 01:52:18;;;;;;;50.80;22.87;;;7.80;62.20;;;;;;5091926;28;20520;-75
2022/03/26 01:54:44;;;;;;;55.67;22.27;;;7.90;62.30;;;;;;5093229;28;20926;-75
2022/03/26 01:57:10;;;;;;;48.30;21.43;;;7.80;62.50;;;;;;5093314;28;20418;-74
2022/03/26 01:59:37;;;;;;;49.70;22.13;;;7.70;62.90;;;;;;5095198;28;20489;-75
2022/03/26 02:02:05;;;;;;;50.30;23.13;;;7.70;63.20;;;;;;5096804;28;20437;-72
2022/03/26 02:04:31;;;;;;;57.30;23.03;;;7.70;62.90;;;;;;5093215;28;20785;-75
2022/03/26 02:06:56;;;;;;;51.90;23.03;;;7.70;62.90;;;;;;5092170;28;20461;-75
2022/03/26 02:09:22;;;;;;;51.90;22.30;;;7.70;62.80;;;;;;5092322;28;20184;-75
2022/03/26 02:11:48;;;;;;;53.90;22.97;;;7.70;62.90;;;;;;5079241;28;20570;-74
2022/03/26 02:14:14;;;;;;;55.60;23.00;;;7.70;62.80;;;;;;5092046;28;20183;-74
2022/03/26 02:16:41;;;;;;;48.30;22.63;;;7.60;63.10;;;;;;5079898;28;21030;-75
2022/03/26 02:19:09;;;;;;;54.97;22.80;;;7.60;63.50;;;;;;5092097;28;20930;-73
2022/03/26 02:21:37;;;;;;;57.47;23.73;;;7.50;63.90;;;;;;5091627;28;20417;-75
2022/03/26 02:24:06;;;;;;;50.20;22.10;;;7.50;63.90;;;;;;5094017;28;20942;-74
2022/03/26 02:26:32;;;;;;;56.20;24.90;;;7.50;63.90;;;;;;5094693;28;20471;-74
2022/03/26 02:29:12;;;;;;;51.37;22.83;;;7.50;64.10;;;;;;5094637;28;20852;-73
2022/03/26 02:31:39;;;;;;;49.07;22.77;;;7.40;64.20;;;;;;5088292;28;20413;-73
2022/03/26 02:34:06;;;;;;;51.67;22.87;;;7.40;64.20;;;;;;5093370;28;20417;-74
2022/03/26 02:36:33;;;;;;;46.03;22.73;;;7.30;63.90;;;;;;5091765;28;20449;-74
2022/03/26 02:38:59;;;;;;;50.57;22.00;;;7.30;64.20;;;;;;5091848;28;20486;-73
2022/03/26 02:41:24;;;;;;;55.90;21.73;;;7.30;64.20;;;;;;5078356;28;20801;-74
2022/03/26 02:43:50;;;;;;;50.90;23.87;;;7.20;64.40;;;;;;5093620;28;20266;-73
2022/03/26 02:46:16;;;;;;;48.93;21.47;;;7.20;64.70;;;;;;5093053;28;20981;-73
2022/03/26 02:48:44;;;;;;;48.17;22.10;;;7.20;64.70;;;;;;5078023;28;20429;-74
2022/03/26 02:51:10;;;;;;;53.67;22.70;;;7.10;64.70;;;;;;5079512;28;20274;-74
2022/03/26 02:53:36;;;;;;;48.17;21.97;;;7.20;65.00;;;;;;5073403;28;20843;-74
2022/03/26 02:56:02;;;;;;;49.47;21.70;;;7.10;65.00;;;;;;5091446;28;20433;-74
2022/03/26 02:58:27;;;;;;;53.63;21.90;;;7.10;65.10;;;;;;5094155;28;20183;-74
2022/03/26 03:00:53;;;;;;;46.67;21.23;;;7.10;65.30;;;;;;5093715;28;20267;-72
2022/03/26 03:03:19;;;;;;;46.97;21.70;;;7.10;65.10;;;;;;5080046;28;20203;-73
2022/03/26 03:05:48;;;;;;;49.67;21.87;;;7.10;65.10;;;;;;5091231;28;20221;-74
2022/03/26 03:08:15;;;;;;;54.37;23.17;;;7.00;65.30;;;;;;5081552;28;20269;-73
2022/03/26 03:10:42;;;;;;;52.80;21.87;;;7.00;65.40;;;;;;5092652;28;20517;-74
2022/03/26 03:13:08;;;;;;;55.40;22.40;;;6.90;65.80;;;;;;5091424;28;20440;-74
2022/03/26 03:15:34;;;;;;;49.63;23.00;;;6.90;65.70;;;;;;5091936;28;20421;-74
2022/03/26 03:18:00;;;;;;;44.73;21.50;;;6.90;65.60;;;;;;5091144;28;20478;-75
2022/03/26 03:20:26;;;;;;;57.10;23.13;;;6.90;65.70;;;;;;5091032;28;20168;-74
2022/03/26 03:22:51;;;;;;;50.87;21.10;;;6.90;66.00;;;;;;5090908;28;20202;-74
2022/03/26 03:25:18;;;;;;;52.23;22.03;;;6.80;66.30;;;;;;5091340;28;20186;-74
2022/03/26 03:27:44;;;;;;;53.57;23.33;;;6.80;66.40;;;;;;5091219;28;20199;-73
2022/03/26 03:30:11;;;;;;;42.03;20.80;;;6.80;66.30;;;;;;5094176;28;20427;-74
2022/03/26 03:32:37;;;;;;;53.63;24.43;;;6.80;66.60;;;;;;5095241;28;20433;-73
2022/03/26 03:35:05;;;;;;;52.37;22.27;;;6.70;67.50;;;;;;5095990;28;20421;-73
2022/03/26 03:37:35;;;;;;;56.60;24.10;;;6.60;67.70;;;;;;5084465;28;20785;-74
2022/03/26 03:40:01;;;;;;;52.60;21.90;;;6.60;67.90;;;;;;5097607;28;20428;-74
2022/03/26 03:42:27;;;;;;;53.60;23.70;;;6.60;68.00;;;;;;5103762;28;20885;-75
2022/03/26 03:44:52;;;;;;;47.57;22.30;;;6.50;68.20;;;;;;5104233;28;20680;-74
2022/03/26 03:47:18;;;;;;;46.83;22.23;;;6.60;68.60;;;;;;5102675;28;20207;-73
2022/03/26 03:49:44;;;;;;;50.83;21.70;;;6.50;68.80;;;;;;5098141;28;20328;-73
2022/03/26 03:52:09;;;;;;;60.67;24.53;;;6.60;68.80;;;;;;5094321;28;20222;-73
2022/03/26 03:54:35;;;;;;;51.20;22.90;;;6.40;68.90;;;;;;5094682;28;20682;-75
2022/03/26 03:57:01;;;;;;;52.27;23.60;;;6.40;69.20;;;;;;5094706;28;20183;-73
2022/03/26 03:59:27;;;;;;;52.60;23.17;;;6.40;69.20;;;;;;5095125;28;20179;-75
2022/03/26 04:01:52;;;;;;;49.23;22.27;;;6.40;69.70;;;;;;5096373;28;20211;-75
2022/03/26 04:04:18;;;;;;;53.07;24.40;;;6.40;69.40;;;;;;5095833;28;20218;-73
2022/03/26 04:06:44;;;;;;;49.50;22.10;;;6.30;69.40;;;;;;5094500;28;20191;-75
2022/03/26 04:09:10;;;;;;;45.90;21.87;;;6.30;69.50;;;;;;5095282;28;20428;-74
2022/03/26 04:11:36;;;;;;;47.03;22.47;;;6.30;69.70;;;;;;5095082;28;20190;-75
2022/03/26 04:14:01;;;;;;;56.80;23.43;;;6.30;69.80;;;;;;5078151;28;20805;-74
2022/03/26 04:16:35;;;;;;;52.50;22.73;;;6.30;69.70;;;;;;5095987;28;20431;-74
2022/03/26 04:19:01;;;;;;;51.07;20.43;;;6.20;69.80;;;;;;5093326;28;20219;-74
2022/03/26 04:21:26;;;;;;;47.73;20.23;;;6.30;69.50;;;;;;5086266;28;20935;-74
2022/03/26 04:23:52;;;;;;;52.97;20.93;;;6.30;69.40;;;;;;5100886;28;20215;-73
2022/03/26 04:26:19;;;;;;;49.87;20.70;;;6.30;69.10;;;;;;5098775;28;20954;-73
2022/03/26 04:28:44;;;;;;;47.23;21.23;;;6.20;69.20;;;;;;5098944;28;20183;-72
2022/03/26 04:31:10;;;;;;;49.43;22.70;;;6.10;69.80;;;;;;5100164;28;20450;-73
2022/03/26 04:33:36;;;;;;;49.57;20.47;;;6.10;69.90;;;;;;5095826;28;20708;-73
2022/03/26 04:36:02;;;;;;;44.17;21.40;;;6.10;70.10;;;;;;5095858;28;20715;-71
2022/03/26 04:38:28;;;;;;;51.53;20.80;;;6.10;69.80;;;;;;5096248;28;20180;-73
2022/03/26 04:40:53;;;;;;;51.33;23.10;;;6.10;69.40;;;;;;5095287;28;20444;-73
2022/03/26 04:43:21;;;;;;;50.00;22.30;;;6.00;69.50;;;;;;5096015;28;20881;-73
2022/03/26 04:45:47;;;;;;;47.73;21.63;;;6.00;70.40;;;;;;5094694;28;20179;-75
2022/03/26 04:48:13;;;;;;;56.00;23.57;;;6.00;70.80;;;;;;5093857;28;20468;-74
2022/03/26 04:50:39;;;;;;;53.17;21.33;;;6.00;70.70;;;;;;5076166;28;20203;-73
2022/03/26 04:53:05;;;;;;;48.10;22.40;;;5.90;71.10;;;;;;5078592;28;20606;-73
2022/03/26 04:55:31;;;;;;;52.43;21.70;;;5.80;71.40;;;;;;5098438;28;20525;-74
2022/03/26 04:57:56;;;;;;;47.63;22.37;;;5.80;71.70;;;;;;5096990;28;20493;-75
2022/03/26 05:00:22;;;;;;;54.07;21.80;;;5.80;71.80;;;;;;5099171;28;20179;-74
2022/03/26 05:02:48;;;;;;;52.43;23.00;;;5.70;72.00;;;;;;5099787;28;20223;-74
2022/03/26 05:05:15;;;;;;;43.50;19.60;;;5.70;72.10;;;;;;5100481;28;20466;-72
2022/03/26 05:07:47;;;;;;;51.03;22.03;;;5.80;72.00;;;;;;5101592;28;20989;-74
2022/03/26 05:10:19;;;;;;;49.33;21.00;;;5.80;70.80;;;;;;5101318;28;20496;-73
2022/03/26 05:12:47;;;;;;;52.03;22.37;;;5.80;70.40;;;;;;5086024;28;21072;-73
2022/03/26 05:15:13;;;;;;;46.03;20.50;;;5.80;70.50;;;;;;5098227;28;20478;-74
2022/03/26 05:17:39;;;;;;;59.17;24.30;;;5.80;70.80;;;;;;5098701;28;20448;-73
2022/03/26 05:20:07;;;;;;;59.07;22.50;;;5.70;71.60;;;;;;5084034;28;20507;-75
2022/03/26 05:22:33;;;;;;;44.20;21.03;;;5.80;71.70;;;;;;5093208;28;20433;-74
2022/03/26 05:24:59;;;;;;;56.80;22.43;;;5.70;71.80;;;;;;5092685;28;20500;-75
2022/03/26 05:27:25;;;;;;;52.27;21.73;;;5.70;71.80;;;;;;5093186;28;20590;-74
2022/03/26 05:29:50;;;;;;;53.73;21.97;;;5.70;72.00;;;;;;5093216;28;20432;-73
2022/03/26 05:32:16;;;;;;;47.77;22.50;;;5.70;72.10;;;;;;5092553;28;20546;-74
2022/03/26 05:34:44;;;;;;;50.40;22.40;;;5.60;72.40;;;;;;5093045;28;20176;-74
2022/03/26 05:37:10;;;;;;;46.93;21.00;;;5.60;72.60;;;;;;5093115;28;20532;-74
2022/03/26 05:39:36;;;;;;;48.67;20.90;;;5.70;72.40;;;;;;5092463;28;20992;-74
2022/03/26 05:42:02;;;;;;;49.97;21.13;;;5.80;71.80;;;;;;5092029;28;20473;-73
2022/03/26 05:44:28;;;;;;;52.60;21.20;;;5.80;71.30;;;;;;5092776;28;20482;-74
2022/03/26 05:46:54;;;;;;;50.87;23.03;;;5.80;71.00;;;;;;5092738;28;20844;-72
2022/03/26 05:49:21;;;;;;;54.07;22.27;;;5.80;71.40;;;;;;5092521;28;20441;-73
2022/03/26 05:51:47;;;;;;;55.53;22.67;;;5.80;71.80;;;;;;5091807;28;20234;-74
2022/03/26 05:54:14;;;;;;;49.93;22.53;;;5.80;71.80;;;;;;5092396;28;20812;-72
2022/03/26 05:56:40;;;;;;;49.93;23.33;;;5.90;71.70;;;;;;5092589;28;20436;-74
2022/03/26 05:59:09;;;;;;;51.53;22.40;;;5.80;71.70;;;;;;5092627;28;20448;-71
2022/03/26 06:01:35;;;;;;;53.20;23.80;;;5.90;71.70;;;;;;5077991;28;20428;-72
2022/03/26 06:04:02;;;;;;;53.40;22.43;;;5.90;71.40;;;;;;5083116;28;20433;-72
2022/03/26 06:06:28;;;;;;;49.03;22.03;;;5.80;71.60;;;;;;5097966;28;20475;-74
2022/03/26 06:08:54;;;;;;;52.53;22.50;;;5.90;71.80;;;;;;5092106;28;20421;-71
2022/03/26 06:11:20;;;;;;;53.40;22.80;;;5.80;72.00;;;;;;5107262;28;20500;-72
2022/03/26 06:13:46;;;;;;;50.60;22.00;;;5.90;71.70;;;;;;5106554;28;20256;-73
2022/03/26 06:16:11;;;;;;;55.87;22.57;;;6.00;71.40;;;;;;5105272;28;20429;-72
2022/03/26 06:18:38;;;;;;;57.60;22.67;;;6.00;71.40;;;;;;5081550;28;20508;-72
2022/03/26 06:21:06;;;;;;;56.07;23.50;;;6.00;71.60;;;;;;5076928;28;20188;-73
2022/03/26 06:23:32;;;;;;;52.07;23.90;;;6.00;71.60;;;;;;5092218;28;20437;-73
2022/03/26 06:25:58;;;;;;;46.70;21.43;;;6.10;71.60;;;;;;5091609;28;20429;-74
2022/03/26 06:28:25;;;;;;;51.47;22.20;;;6.20;71.30;;;;;;5077968;28;20787;-73
2022/03/26 06:30:51;;;;;;;50.73;21.80;;;6.30;70.80;;;;;;5093279;28;20445;-72
2022/03/26 06:33:18;;;;;;;48.00;22.43;;;6.30;70.70;;;;;;5092429;28;20528;-74
2022/03/26 06:35:45;;;;;;;52.00;22.80;;;6.30;70.50;;;;;;5079228;28;20983;-74
2022/03/26 06:38:11;;;;;;;56.47;23.20;;;6.40;70.40;;;;;;5091283;28;21073;-72
2022/03/26 06:40:38;;;;;;;48.70;23.23;;;6.40;69.90;;;;;;5093191;28;20429;-74
2022/03/26 06:43:05;;;;;;;50.00;22.40;;;6.50;69.80;;;;;;5094697;28;20809;-74
2022/03/26 06:45:30;;;;;;;51.60;23.00;;;6.50;69.90;;;;;;5092634;28;20420;-74
2022/03/26 06:47:56;;;;;;;52.50;23.50;;;6.50;69.90;;;;;;5090966;28;20468;-73
2022/03/26 06:50:22;;;;;;;51.93;22.67;;;6.60;69.80;;;;;;5091629;28;20422;-73
2022/03/26 06:52:48;;;;;;;52.30;23.37;;;6.70;69.50;;;;;;5090999;28;20437;-75
2022/03/26 06:55:14;;;;;;;49.87;23.60;;;6.70;69.40;;;;;;5091595;28;20187;-75
2022/03/26 06:57:41;;;;;;;61.27;25.63;;;6.80;68.90;;;;;;5073281;28;20189;-73
2022/03/26 07:00:09;;;;;;;54.37;23.87;;;6.90;68.60;;;;;;5091526;28;20183;-73
2022/03/26 07:02:36;;;;;;;56.57;23.43;;;6.90;68.00;;;;;;5091935;28;20436;-73
2022/03/26 07:05:02;;;;;;;57.40;24.40;;;7.00;67.90;;;;;;5079150;28;20417;-75
2022/03/26 07:07:28;;;;;;;62.10;24.10;;;7.10;67.70;;;;;;5093288;28;21047;-73
2022/03/26 07:09:54;;;;;;;56.27;23.37;;;7.10;67.50;;;;;;5093559;28;20460;-74
2022/03/26 07:12:20;;;;;;;45.97;24.03;;;7.20;66.70;;;;;;5094027;28;20277;-73
2022/03/26 07:14:46;;;;;;;49.00;22.17;;;7.40;65.60;;;;;;5095604;28;20179;-73
2022/03/26 07:17:12;;;;;;;55.50;23.30;;;7.50;64.80;;;;;;5091942;28;20417;-73
2022/03/26 07:19:37;;;;;;;49.90;24.00;;;7.50;64.40;;;;;;5092701;28;20413;-72
2022/03/26 07:22:03;;;;;;;54.80;23.80;;;7.60;63.40;;;;;;5093209;28;20271;-74
2022/03/26 07:24:29;;;;;;;52.63;22.60;;;7.60;62.80;;;;;;5081311;28;20182;-73
2022/03/26 07:26:55;;;;;;;51.53;23.23;;;7.70;62.80;;;;;;5095885;28;20536;-73
2022/03/26 07:29:20;;;;;;;52.57;24.67;;;7.80;62.90;;;;;;5094026;28;20312;-75
2022/03/26 07:31:46;;;;;;;53.43;23.27;;;7.90;62.90;;;;;;5093586;28;20704;-73
2022/03/26 07:34:15;;;;;;;50.63;23.40;;;8.00;62.90;;;;;;5094815;28;20182;-77
2022/03/26 07:36:41;;;;;;;47.80;23.13;;;8.10;62.20;;;;;;5082225;28;20469;-74
2022/03/26 07:39:07;;;;;;;47.97;22.70;;;8.20;61.50;;;;;;5097352;28;20794;-71
2022/03/26 07:41:33;;;;;;;52.03;22.83;;;8.20;61.20;;;;;;5091109;28;20512;-73
2022/03/26 07:43:59;;;;;;;51.10;22.73;;;8.30;61.20;;;;;;5094397;28;20270;-76
2022/03/26 07:46:25;;;;;;;44.73;22.70;;;8.40;61.00;;;;;;5093377;28;20202;-75
2022/03/26 07:48:51;;;;;;;54.70;23.50;;;8.50;59.90;;;;;;5094417;28;20191;-76
2022/03/26 07:51:16;;;;;;;51.93;23.00;;;8.50;59.50;;;;;;5093250;28;20710;-74
2022/03/26 07:53:43;;;;;;;53.30;22.70;;;8.60;59.20;;;;;;5095033;28;20437;-76
2022/03/26 07:56:09;;;;;;;50.10;22.60;;;8.70;59.50;;;;;;5094527;28;20248;-76
2022/03/26 07:58:34;;;;;;;59.67;24.17;;;8.80;59.70;;;;;;5095536;28;20447;-74
2022/03/26 08:01:00;;;;;;;52.20;23.40;;;8.90;58.80;;;;;;5092919;28;20425;-75
2022/03/26 08:03:27;;;;;;;51.47;21.97;;;9.00;58.70;;;;;;5093930;28;20322;-75
2022/03/26 08:05:53;;;;;;;57.97;23.83;;;9.00;57.30;;;;;;5098473;28;20448;-75
2022/03/26 08:08:19;;;;;;;51.93;23.83;;;9.00;57.60;;;;;;5097602;28;20180;-75
2022/03/26 08:10:44;;;;;;;54.80;23.70;;;9.10;58.10;;;;;;5075406;28;20179;-75
2022/03/26 08:13:10;;;;;;;49.60;22.03;;;9.10;58.00;;;;;;5076470;28;20910;-77
2022/03/26 08:15:36;;;;;;;53.87;23.87;;;9.20;58.10;;;;;;5093661;28;20273;-75
2022/03/26 08:18:05;;;;;;;48.83;23.17;;;9.30;58.00;;;;;;5095629;28;20188;-77
2022/03/26 08:20:30;;;;;;;57.00;23.10;;;9.40;57.30;;;;;;5095831;28;20428;-75
2022/03/26 08:22:57;;;;;;;56.70;26.33;;;9.50;57.00;;;;;;5078899;28;20453;-75
2022/03/26 08:28:09;;;;;;;59.70;25.50;;;9.70;56.60;;;;;;5095120;28;20463;-75
2022/03/26 08:30:35;;;;;;;54.73;24.77;;;9.80;56.50;;;;;;5077856;28;20417;-75
2022/03/26 08:33:01;;;;;;;53.00;22.50;;;9.70;56.00;;;;;;5077499;28;20918;-75
2022/03/26 08:35:32;;;;;;;55.63;22.97;;;9.80;56.10;;;;;;5095877;28;20536;-76
2022/03/26 08:37:57;;;;;;;47.70;23.10;;;9.90;55.80;;;;;;5095939;28;20417;-75
2022/03/26 08:40:23;;;;;;;58.97;23.90;;;9.90;55.80;;;;;;5095316;28;20436;-75
2022/03/26 08:42:49;;;;;;;56.50;23.83;;;10.00;55.70;;;;;;5095381;28;20207;-76
2022/03/26 08:45:15;;;;;;;56.23;24.63;;;10.10;55.70;;;;;;5094678;28;20413;-75
2022/03/26 08:47:41;;;;;;;57.70;25.67;;;10.10;55.40;;;;;;5094131;28;20307;-76
2022/03/26 08:50:08;;;;;;;48.67;23.23;;;10.20;55.00;;;;;;5095632;28;20602;-77
2022/03/26 08:52:34;;;;;;;46.93;23.00;;;10.30;54.80;;;;;;5095986;28;20570;-75
2022/03/26 08:55:01;;;;;;;53.43;24.33;;;10.40;54.40;;;;;;5096956;28;20420;-75
2022/03/26 08:57:26;;;;;;;52.27;24.00;;;10.50;53.60;;;;;;5078837;28;20422;-75
2022/03/26 08:59:52;;;;;;;52.23;23.80;;;10.60;52.80;;;;;;5083493;28;20812;-76
2022/03/26 09:02:18;;;;;;;55.17;23.50;;;10.60;52.20;;;;;;5093590;28;20215;-75
2022/03/26 09:04:45;;;;;;;55.73;24.07;;;10.70;52.20;;;;;;5094048;28;20420;-75
2022/03/26 09:07:11;;;;;;;52.97;22.07;;;10.80;51.80;;;;;;5079088;28;20211;-76
2022/03/26 09:09:37;;;;;;;57.83;23.73;;;10.90;51.80;;;;;;5097558;28;20926;-75
2022/03/26 09:12:03;;;;;;;53.67;23.50;;;11.00;51.60;;;;;;5096932;28;20798;-76
2022/03/26 09:14:29;;;;;;;57.87;23.83;;;11.10;51.00;;;;;;5078770;28;20198;-75
2022/03/26 09:16:54;;;;;;;54.17;24.00;;;11.10;51.20;;;;;;5092858;28;20944;-76
2022/03/26 09:19:20;;;;;;;53.83;22.87;;;11.30;51.20;;;;;;5093416;28;20206;-75
2022/03/26 09:21:46;;;;;;;47.17;23.00;;;11.40;50.90;;;;;;5082752;28;20183;-76
2022/03/26 09:24:15;;;;;;;54.03;23.97;;;11.50;50.30;;;;;;5079141;28;20194;-75
2022/03/26 09:26:41;;;;;;;60.43;25.03;;;11.60;50.50;;;;;;5093685;28;20525;-77
2022/03/26 09:29:08;;;;;;;48.90;21.83;;;11.80;50.20;;;;;;5084453;28;20512;-75
2022/03/26 09:31:33;;;;;;;55.60;24.50;;;12.00;49.70;;;;;;5084343;28;20413;-75
2022/03/26 09:33:59;;;;;;;47.50;23.10;;;12.00;49.70;;;;;;5107196;28;20973;-75
2022/03/26 09:36:25;;;;;;;53.33;23.63;;;12.10;49.70;;;;;;5105810;28;20319;-75
2022/03/26 09:38:51;;;;;;;62.73;26.43;;;12.20;49.50;;;;;;5103542;28;20578;-75
2022/03/26 09:41:17;;;;;;;53.40;23.80;;;12.20;49.30;;;;;;5090996;28;20441;-75
2022/03/26 09:43:43;;;;;;;59.20;24.50;;;12.40;49.40;;;;;;5093963;28;20570;-75
2022/03/26 09:46:10;;;;;;;53.13;23.77;;;12.50;49.00;;;;;;5079770;28;20191;-75
2022/03/26 09:48:37;;;;;;;55.13;25.27;;;12.60;48.90;;;;;;5092666;28;20468;-75
2022/03/26 09:51:03;;;;;;;55.37;24.03;;;12.60;48.60;;;;;;5080387;28;20856;-75
2022/03/26 09:53:29;;;;;;;58.40;26.13;;;12.70;48.50;;;;;;5092715;28;20975;-74
2022/03/26 09:55:56;;;;;;;54.40;25.40;;;12.70;48.60;;;;;;5092758;28;20528;-75
2022/03/26 09:58:22;;;;;;;55.10;26.07;;;12.80;48.50;;;;;;5092167;28;20258;-74
2022/03/26 10:00:48;;;;;;;53.63;25.07;;;12.80;48.90;;;;;;5092891;28;20453;-74
2022/03/26 10:03:14;;;;;;;50.10;25.63;;;12.90;48.60;;;;;;5092544;28;20199;-75
2022/03/26 10:05:39;;;;;;;59.07;26.77;;;13.00;48.30;;;;;;5092676;28;20796;-75
2022/03/26 10:08:16;;;;;;;58.50;26.93;;;12.90;48.30;;;;;;5091846;28;20505;-75
2022/03/26 10:10:45;;;;;;;49.80;24.70;;;13.10;48.30;;;;;;5092600;28;20175;-75
2022/03/26 10:13:12;;;;;;;49.63;23.53;;;13.20;47.90;;;;;;5092648;28;20443;-74
2022/03/26 10:16:01;;;;;;;55.23;24.97;;;13.40;47.90;;;;;;5078883;28;20421;-74
2022/03/26 10:18:36;;;;;;;54.93;26.83;;;13.50;47.30;;;;;;5074583;28;20424;-75
2022/03/26 10:21:02;;;;;;;55.83;24.90;;;13.60;47.00;;;;;;5092196;28;20459;-74
2022/03/26 10:23:32;;;;;;;52.60;24.80;;;13.70;46.70;;;;;;5092433;28;20540;-76
2022/03/26 10:26:25;;;;;;;61.83;26.50;;;13.90;46.20;;;;;;5077890;28;20587;-76
2022/03/26 10:28:53;;;;;;;55.37;24.10;;;14.10;46.10;;;;;;5069788;28;20413;-75
2022/03/26 10:34:14;;;;;;;53.73;25.70;;;14.50;44.70;;;;;;5092127;28;20413;-74
2022/03/26 10:36:45;;;;;;;62.23;26.67;;;14.70;44.50;;;;;;5076292;28;20413;-76
2022/03/26 10:39:25;;;;;;;57.83;25.73;;;14.80;44.20;;;;;;5094044;28;21266;-77
2022/03/26 10:41:54;;;;;;;61.00;24.83;;;14.90;44.10;;;;;;5092306;28;20466;-74
2022/03/26 10:44:30;;;;;;;52.17;25.27;;;15.00;44.10;;;;;;5075034;28;20424;-74
2022/03/26 10:46:58;;;;;;;57.33;26.67;;;15.20;43.00;;;;;;5092673;28;20500;-76
2022/03/26 10:49:25;;;;;;;53.30;26.20;;;15.60;43.10;;;;;;5073827;28;20525;-75
2022/03/26 10:51:53;;;;;;;55.50;26.20;;;16.00;41.50;;;;;;5079747;28;20525;-75
2022/03/26 10:54:26;;;;;;;56.20;25.50;;;16.40;40.60;;;;;;5093115;28;20428;-75
2022/03/26 10:56:53;;;;;;;55.30;25.87;;;16.60;39.60;;;;;;5093643;28;20422;-75
2022/03/26 10:59:20;;;;;;;60.13;25.10;;;16.80;37.80;;;;;;5093730;28;20508;-75
2022/03/26 11:01:46;;;;;;;52.20;23.60;;;16.90;38.00;;;;;;5076068;28;20429;-76
2022/03/26 11:04:12;;;;;;;56.37;25.10;;;16.90;38.30;;;;;;5092098;28;20434;-75
2022/03/26 11:06:39;;;;;;;55.93;23.53;;;17.00;38.60;;;;;;5091103;28;20468;-75
2022/03/26 11:09:07;;;;;;;53.17;24.80;;;17.30;36.60;;;;;;5091035;28;20231;-74
2022/03/26 11:11:33;;;;;;;58.97;26.00;;;17.70;36.40;;;;;;5090936;28;20444;-76
2022/03/26 11:14:02;;;;;;;53.53;24.60;;;18.10;36.20;;;;;;5091197;28;20488;-76
2022/03/26 11:16:40;;;;;;;50.60;23.73;;;18.30;34.70;;;;;;5091096;28;20500;-73
2022/03/26 11:19:37;;;;;;;50.53;24.83;;;18.40;32.50;;;;;;5093975;28;20431;-75
2022/03/26 11:22:14;;;;;;;46.77;23.67;;;18.60;32.90;;;;;;5093694;28;20451;-76
2022/03/26 11:25:17;;;;;;;48.10;23.47;;;18.70;32.00;;;;;;5097080;28;20421;-75
2022/03/26 11:27:55;;;;;;;55.10;24.53;;;18.50;31.90;;;;;;5090762;28;20488;-75
2022/03/26 11:30:32;;;;;;;50.17;23.53;;;18.20;32.10;;;;;;5091521;28;20421;-75
2022/03/26 11:33:12;;;;;;;49.13;23.17;;;18.50;32.40;;;;;;5091304;28;20437;-75
2022/03/26 11:35:57;;;;;;;51.67;24.47;;;19.00;31.60;;;;;;5085644;28;20496;-74
2022/03/26 11:38:27;;;;;;;46.00;22.20;;;19.30;30.80;;;;;;5079576;28;20417;-73
2022/03/26 11:41:02;;;;;;;49.23;22.27;;;19.30;29.90;;;;;;5091794;28;20414;-75
2022/03/26 11:43:43;;;;;;;46.47;21.40;;;19.10;29.90;;;;;;5093322;28;20447;-77
2022/03/26 11:51:56;;;;;;;45.57;23.13;;;19.40;29.60;;;;;;5098362;28;20589;-76
2022/03/26 11:54:22;;;;;;;40.60;21.40;;;19.30;29.30;;;;;;5102184;28;20405;-74
2022/03/26 11:57:08;;;;;;;40.43;20.13;;;19.10;28.70;;;;;;5104427;28;20435;-74
2022/03/26 11:59:37;;;;;;;35.80;18.77;;;19.00;28.40;;;;;;5089431;28;20432;-74
2022/03/26 12:02:35;;;;;;;38.60;19.13;;;18.70;28.70;;;;;;5094374;28;20525;-76
2022/03/26 12:07:51;;;;;;;41.47;20.37;;;18.70;29.10;;;;;;5095287;28;20468;-76
2022/03/26 12:10:20;;;;;;;43.87;19.80;;;18.80;29.00;;;;;;5095408;28;20440;-75
2022/03/26 12:12:49;;;;;;;44.10;20.07;;;18.90;28.80;;;;;;5095048;28;20466;-76
2022/03/26 12:15:15;;;;;;;44.50;20.47;;;18.90;29.00;;;;;;5080334;28;20434;-76
2022/03/26 12:17:46;;;;;;;42.63;20.37;;;18.80;29.00;;;;;;5082709;28;20426;-76
2022/03/26 12:20:19;;;;;;;41.63;19.27;;;18.80;28.90;;;;;;5093744;28;20595;-75
2022/03/26 12:22:48;;;;;;;37.27;18.47;;;18.70;28.90;;;;;;5094222;28;20818;-76
2022/03/26 12:25:16;;;;;;;41.27;18.90;;;18.80;28.20;;;;;;5094278;28;20469;-76
2022/03/26 12:27:43;;;;;;;35.27;18.23;;;18.90;28.60;;;;;;5094124;28;20473;-76
2022/03/26 12:30:09;;;;;;;33.73;17.93;;;19.10;28.00;;;;;;5094046;28;20501;-74
2022/03/26 12:32:35;;;;;;;34.47;17.67;;;19.20;27.80;;;;;;5093732;28;21034;-75
2022/03/26 12:35:03;;;;;;;36.20;16.77;;;19.20;27.50;;;;;;5094047;28;20423;-76
2022/03/26 12:37:30;;;;;;;33.70;17.00;;;19.10;27.30;;;;;;5093863;28;20179;-75
2022/03/26 12:39:56;;;;;;;30.93;16.17;;;19.40;26.70;;;;;;5094283;28;20426;-75
2022/03/26 12:42:24;;;;;;;33.13;16.40;;;19.50;26.30;;;;;;5093591;28;20425;-77
2022/03/26 12:44:51;;;;;;;32.97;17.60;;;19.50;26.30;;;;;;5094219;28;20811;-76
2022/03/26 12:47:22;;;;;;;35.27;17.13;;;19.60;26.30;;;;;;5093674;28;20542;-76